Time;durP1;ratioP1;P1;durP2;ratioP2;P2;SDS_P1;SDS_P2;PMS_P1;PMS_P2;Temp;Humidity;BMP_temperature;BMP_pressure;BME280_temperature;BME280_humidity;BME280_pressure;Samples;Min_cycle;Max_cycle;Signal;HPM_P1;HPM_P2
2024/01/20 00:02:10;;;;;;;1.52;1.42;;;3.30;99.90;;;;;;5096031;28;20151;-92
2024/01/20 00:04:36;;;;;;;1.60;1.50;;;3.40;99.90;;;;;;5097170;28;20039;-92
2024/01/20 00:07:01;;;;;;;1.50;1.40;;;3.30;99.90;;;;;;5096152;28;20122;-91
2024/01/20 00:09:28;;;;;;;1.50;1.40;;;3.10;99.90;;;;;;5097785;27;20065;-91
2024/01/20 00:11:54;;;;;;;1.40;1.40;;;3.30;99.90;;;;;;5092584;27;20149;-92
2024/01/20 00:14:20;;;;;;;1.50;1.40;;;3.30;99.90;;;;;;5092417;28;20536;-93
2024/01/20 00:16:47;;;;;;;1.60;1.50;;;3.30;99.90;;;;;;5095030;28;20047;-93
2024/01/20 00:19:13;;;;;;;1.60;1.50;;;3.20;99.90;;;;;;5094889;28;20486;-92
2024/01/20 00:21:39;;;;;;;1.63;1.52;;;3.00;99.90;;;;;;5090792;28;20045;-92
2024/01/20 00:24:05;;;;;;;1.55;1.45;;;3.00;99.90;;;;;;5092828;28;20058;-93
2024/01/20 00:26:31;;;;;;;1.58;1.48;;;3.20;99.90;;;;;;5093828;28;20050;-93
2024/01/20 00:28:57;;;;;;;1.70;1.60;;;3.00;99.90;;;;;;5092583;28;20031;-92
2024/01/20 00:31:23;;;;;;;1.60;1.50;;;3.00;99.90;;;;;;5095238;28;20038;-92
2024/01/20 00:33:49;;;;;;;1.58;1.48;;;3.20;99.90;;;;;;5094992;28;20342;-93
2024/01/20 00:36:15;;;;;;;1.60;1.50;;;3.10;99.90;;;;;;5096851;28;20062;-93
2024/01/20 00:38:43;;;;;;;1.60;1.50;;;3.10;99.90;;;;;;5097901;28;20047;-93
2024/01/20 00:41:12;;;;;;;1.50;1.40;;;3.10;99.90;;;;;;5095036;27;20126;-93
2024/01/20 00:43:38;;;;;;;1.52;1.42;;;2.90;99.90;;;;;;5097568;27;20125;-93
2024/01/20 00:46:03;;;;;;;1.38;1.38;;;3.00;99.90;;;;;;5098463;27;20039;-92
2024/01/20 00:48:29;;;;;;;1.52;1.42;;;3.00;99.90;;;;;;5099172;27;20648;-91
2024/01/20 00:50:55;;;;;;;1.33;1.33;;;3.00;99.90;;;;;;5101442;27;20040;-94
2024/01/20 00:53:21;;;;;;;1.50;1.40;;;3.10;99.90;;;;;;5098404;27;20050;-94
2024/01/20 00:55:47;;;;;;;1.42;1.40;;;3.00;99.90;;;;;;5118980;27;20130;-94
2024/01/20 00:58:12;;;;;;;1.40;1.40;;;3.20;99.90;;;;;;5099445;27;20114;-93
2024/01/20 01:00:41;;;;;;;1.60;1.50;;;3.10;99.90;;;;;;5098549;27;20500;-93
2024/01/20 01:03:08;;;;;;;1.30;1.30;;;3.00;99.90;;;;;;5098365;27;20035;-92
2024/01/20 01:05:34;;;;;;;1.50;1.40;;;3.20;99.90;;;;;;5096025;27;20043;-94
2024/01/20 01:07:59;;;;;;;1.50;1.40;;;2.90;99.90;;;;;;5097511;27;20066;-92
2024/01/20 01:10:25;;;;;;;1.52;1.42;;;3.10;99.90;;;;;;5102070;27;20047;-92
2024/01/20 01:12:51;;;;;;;1.48;1.40;;;3.10;99.90;;;;;;5098394;27;20031;-92
2024/01/20 01:15:17;;;;;;;1.50;1.40;;;2.90;99.90;;;;;;5097842;27;20096;-91
2024/01/20 01:17:43;;;;;;;1.30;1.30;;;3.10;99.90;;;;;;5099288;27;20031;-92
2024/01/20 01:20:09;;;;;;;1.50;1.40;;;3.10;99.90;;;;;;5100055;27;20063;-93
2024/01/20 01:22:35;;;;;;;1.67;1.58;;;3.10;99.90;;;;;;5112821;27;20096;-90
2024/01/20 01:25:01;;;;;;;1.58;1.48;;;3.10;99.90;;;;;;5097351;27;20039;-92
2024/01/20 01:27:27;;;;;;;1.58;1.48;;;2.80;99.90;;;;;;5102050;27;20055;-93
2024/01/20 01:29:58;;;;;;;1.55;1.45;;;3.00;99.90;;;;;;5115843;27;20031;-94
2024/01/20 01:32:25;;;;;;;1.60;1.50;;;3.10;99.90;;;;;;5097684;27;20043;-93
2024/01/20 01:34:53;;;;;;;1.70;1.60;;;2.80;99.90;;;;;;5098075;27;20125;-93
2024/01/20 01:37:19;;;;;;;1.45;1.40;;;3.00;99.90;;;;;;5098387;27;20084;-93
2024/01/20 01:39:48;;;;;;;1.60;1.50;;;2.80;99.90;;;;;;5099916;27;20046;-92
2024/01/20 01:42:14;;;;;;;1.60;1.50;;;2.80;99.90;;;;;;5097537;27;20039;-93
2024/01/20 01:44:40;;;;;;;1.60;1.50;;;3.00;99.90;;;;;;5097096;27;20031;-93
2024/01/20 01:47:06;;;;;;;1.60;1.50;;;3.00;99.90;;;;;;5098249;27;20039;-93
2024/01/20 01:49:32;;;;;;;1.60;1.50;;;2.70;99.90;;;;;;5096690;27;20484;-92
2024/01/20 01:51:58;;;;;;;1.70;1.60;;;2.70;99.90;;;;;;5114243;27;20073;-92
2024/01/20 01:54:24;;;;;;;1.60;1.50;;;2.80;99.90;;;;;;5094185;27;20043;-92
2024/01/20 01:56:59;;;;;;;1.70;1.60;;;2.70;99.90;;;;;;5097375;27;20043;-93
2024/01/20 01:59:28;;;;;;;1.70;1.60;;;2.80;99.90;;;;;;5097285;27;20051;-94
2024/01/20 02:01:54;;;;;;;1.60;1.50;;;2.80;99.90;;;;;;5096995;27;20063;-91
2024/01/20 02:04:19;;;;;;;1.70;1.60;;;2.90;99.90;;;;;;5100261;27;20519;-92
2024/01/20 02:06:45;;;;;;;1.45;1.40;;;2.90;99.90;;;;;;5096744;27;20050;-91
2024/01/20 02:09:12;;;;;;;1.60;1.50;;;2.80;99.90;;;;;;5097277;27;20039;-91
2024/01/20 02:11:41;;;;;;;1.60;1.50;;;2.70;99.90;;;;;;5095617;27;20046;-93
2024/01/20 02:14:11;;;;;;;1.60;1.50;;;2.70;99.90;;;;;;5096897;27;20122;-93
2024/01/20 02:16:42;;;;;;;1.70;1.60;;;2.90;99.90;;;;;;5097210;27;20039;-92
2024/01/20 02:19:08;;;;;;;1.70;1.60;;;2.80;99.90;;;;;;5081925;27;20047;-90
2024/01/20 02:21:41;;;;;;;1.65;1.55;;;2.90;99.90;;;;;;5100646;27;20039;-90
2024/01/20 02:24:41;;;;;;;1.80;1.70;;;2.70;99.90;;;;;;5117371;27;20066;-93
2024/01/20 02:27:12;;;;;;;1.70;1.60;;;2.90;99.90;;;;;;5098540;27;20058;-92
2024/01/20 02:29:42;;;;;;;1.75;1.65;;;2.80;99.90;;;;;;5096131;27;20034;-92
2024/01/20 02:32:08;;;;;;;1.80;1.70;;;2.60;99.90;;;;;;5092386;27;20610;-93
2024/01/20 02:34:45;;;;;;;1.70;1.60;;;2.90;99.90;;;;;;5096505;27;20068;-93
2024/01/20 02:37:17;;;;;;;1.70;1.60;;;2.90;99.90;;;;;;5098004;27;20096;-93
2024/01/20 02:39:46;;;;;;;1.85;1.75;;;2.90;99.90;;;;;;5097872;27;20042;-93
2024/01/20 02:42:12;;;;;;;1.75;1.65;;;2.70;99.90;;;;;;5094208;27;20483;-91
2024/01/20 02:44:38;;;;;;;1.75;1.65;;;2.70;99.90;;;;;;5096055;27;20092;-91
2024/01/20 02:47:19;;;;;;;1.73;1.63;;;2.80;99.90;;;;;;5096570;27;20043;-92
2024/01/20 02:49:45;;;;;;;1.85;1.75;;;2.60;99.90;;;;;;5095242;27;20088;-92
2024/01/20 02:52:11;;;;;;;1.85;1.75;;;2.70;99.90;;;;;;5095114;27;20040;-92
2024/01/20 02:54:42;;;;;;;1.80;1.70;;;2.70;99.90;;;;;;5080737;27;20035;-95
2024/01/20 02:57:25;;;;;;;1.88;1.77;;;2.80;99.90;;;;;;5116544;27;20072;-94
2024/01/20 03:03:45;;;;;;;1.98;1.88;;;2.70;99.90;;;;;;5119191;27;20123;-94
2024/01/20 03:06:51;;;;;;;2.00;1.90;;;2.70;99.90;;;;;;5093591;27;20044;-96
2024/01/20 03:09:35;;;;;;;1.85;1.75;;;2.80;99.90;;;;;;5096595;27;20039;-94
2024/01/20 03:15:59;;;;;;;1.98;1.88;;;2.50;99.90;;;;;;5034571;28;20049;-95
2024/01/20 03:18:53;;;;;;;1.83;1.73;;;2.70;99.90;;;;;;5055328;27;20059;-92
2024/01/20 03:24:46;;;;;;;2.03;1.92;;;2.50;99.90;;;;;;5090720;27;20075;-94
2024/01/20 03:27:23;;;;;;;2.10;2.00;;;2.70;99.90;;;;;;5097617;27;20042;-94
2024/01/20 03:30:21;;;;;;;2.00;1.90;;;2.60;99.90;;;;;;5090675;28;20097;-93
2024/01/20 03:33:13;;;;;;;1.95;1.85;;;2.50;99.90;;;;;;5096528;27;20114;-96
2024/01/20 03:36:27;;;;;;;1.98;1.88;;;2.80;99.90;;;;;;5077978;27;20054;-95
2024/01/20 03:42:07;;;;;;;2.10;2.00;;;2.60;99.90;;;;;;5114271;27;20035;-94
2024/01/20 03:44:33;;;;;;;1.95;1.85;;;2.70;99.90;;;;;;5095449;28;20042;-95
2024/01/20 03:47:33;;;;;;;2.03;1.92;;;2.50;99.90;;;;;;5097049;28;20039;-93
2024/01/20 03:50:10;;;;;;;2.00;1.90;;;2.70;99.90;;;;;;5098470;28;20125;-96
2024/01/20 03:53:04;;;;;;;2.00;1.90;;;2.50;99.90;;;;;;5097408;28;20039;-95
2024/01/20 03:59:59;;;;;;;1.95;1.85;;;2.70;99.90;;;;;;5039759;28;20056;-95
2024/01/20 04:02:51;;;;;;;2.03;1.92;;;2.50;99.90;;;;;;5004488;28;20133;-94
2024/01/20 04:05:17;;;;;;;2.13;2.03;;;2.50;99.90;;;;;;5072097;28;20051;-94
2024/01/20 04:08:24;;;;;;;2.22;2.13;;;2.50;99.90;;;;;;5097753;27;20094;-95
2024/01/20 04:11:20;;;;;;;;;;;;;;;;;;;;;
2024/01/20 04:13:56;;;;;;;1.98;1.88;;;2.70;99.90;;;;;;5112430;28;20077;-95
2024/01/20 04:16:25;;;;;;;2.00;1.90;;;2.50;99.90;;;;;;5095437;27;20043;-94
2024/01/20 04:19:30;;;;;;;1.98;1.88;;;2.70;99.90;;;;;;5099412;27;20096;-93
2024/01/20 04:21:58;;;;;;;2.03;1.92;;;2.40;99.90;;;;;;5102135;27;20047;-95
2024/01/20 04:24:24;;;;;;;2.08;1.98;;;2.70;99.90;;;;;;5101981;27;20035;-93
2024/01/20 04:26:50;;;;;;;2.35;2.25;;;2.40;99.90;;;;;;5102896;27;20046;-93
2024/01/20 04:29:36;;;;;;;;;;;;;;;;;;;;;
2024/01/20 04:32:37;;;;;;;2.15;2.05;;;2.50;99.90;;;;;;5117330;27;20103;-94
2024/01/20 04:35:07;;;;;;;2.00;1.90;;;2.40;99.90;;;;;;5085278;27;20518;-93
2024/01/20 04:37:46;;;;;;;;;;;;;;;;;;;;;
2024/01/20 04:40:18;;;;;;;1.95;1.85;;;2.30;99.90;;;;;;5116746;27;20496;-94
2024/01/20 04:42:45;;;;;;;2.10;2.00;;;2.10;99.90;;;;;;5100461;27;20061;-92
2024/01/20 04:45:15;;;;;;;16.95;16.00;;;2.20;99.90;;;;;;5101457;27;20065;-95
2024/01/20 04:47:52;;;;;;;2.20;2.10;;;2.20;99.90;;;;;;5100781;27;20050;-93
2024/01/20 04:50:26;;;;;;;2.10;2.00;;;2.50;99.90;;;;;;5091995;27;20061;-94
2024/01/20 04:53:24;;;;;;;2.03;1.92;;;2.30;99.90;;;;;;5098047;27;20130;-95
2024/01/20 04:55:55;;;;;;;2.30;2.20;;;2.40;99.90;;;;;;5103011;27;20047;-94
2024/01/20 04:58:21;;;;;;;2.10;2.00;;;2.40;99.90;;;;;;5097413;27;20058;-96
2024/01/20 05:00:46;;;;;;;1.92;1.83;;;2.30;99.90;;;;;;5098106;27;20039;-94
2024/01/20 05:03:12;;;;;;;2.05;1.95;;;2.30;99.90;;;;;;5116027;27;20147;-92
2024/01/20 05:05:39;;;;;;;1.90;1.80;;;2.10;99.90;;;;;;5103475;27;20391;-95
2024/01/20 05:08:05;;;;;;;2.00;1.90;;;2.10;99.90;;;;;;5099239;27;20051;-95
2024/01/20 05:10:34;;;;;;;1.80;1.70;;;2.30;99.90;;;;;;5098887;27;20039;-94
2024/01/20 05:13:09;;;;;;;1.95;1.85;;;2.00;99.90;;;;;;5096633;27;20050;-93
2024/01/20 05:15:38;;;;;;;1.92;1.83;;;2.20;99.90;;;;;;5097944;27;20072;-93
2024/01/20 05:18:07;;;;;;;2.00;1.90;;;2.00;99.90;;;;;;5095853;27;20042;-94
2024/01/20 05:20:32;;;;;;;2.00;1.90;;;2.20;99.90;;;;;;5101490;27;20536;-94
2024/01/20 05:23:03;;;;;;;2.05;1.95;;;2.30;99.90;;;;;;5118553;27;20039;-93
2024/01/20 05:25:29;;;;;;;2.20;2.10;;;2.30;99.90;;;;;;5097733;27;20083;-92
2024/01/20 05:27:58;;;;;;;1.88;1.77;;;2.30;99.90;;;;;;5115359;27;20081;-93
2024/01/20 05:30:27;;;;;;;1.90;1.80;;;2.10;99.90;;;;;;5115270;27;20074;-94
2024/01/20 05:32:53;;;;;;;1.90;1.80;;;2.20;99.90;;;;;;5098982;27;20118;-92
2024/01/20 05:35:18;;;;;;;2.03;1.92;;;2.10;99.90;;;;;;5098060;27;20175;-93
2024/01/20 05:37:47;;;;;;;2.10;2.00;;;2.00;99.90;;;;;;5098188;27;20046;-93
2024/01/20 05:40:13;;;;;;;5.03;2.13;;;2.20;99.90;;;;;;5095981;27;20110;-92
2024/01/20 05:42:39;;;;;;;2.08;1.98;;;2.10;99.90;;;;;;5097634;27;20035;-93
2024/01/20 05:45:08;;;;;;;1.90;1.80;;;2.30;99.90;;;;;;5097901;27;20046;-90
2024/01/20 05:47:35;;;;;;;2.10;2.00;;;2.30;99.90;;;;;;5098578;27;20353;-90
2024/01/20 05:50:05;;;;;;;1.90;1.80;;;2.20;99.90;;;;;;5115308;27;20043;-94
2024/01/20 05:52:31;;;;;;;2.00;1.90;;;2.30;99.90;;;;;;5098517;27;20035;-91
2024/01/20 05:54:57;;;;;;;2.10;2.00;;;2.30;99.90;;;;;;5096522;27;20050;-91
2024/01/20 05:57:23;;;;;;;2.10;2.00;;;2.00;99.90;;;;;;5095140;27;20051;-91
2024/01/20 05:59:50;;;;;;;2.00;1.90;;;2.20;99.90;;;;;;5096685;27;20039;-92
2024/01/20 06:02:16;;;;;;;2.00;1.90;;;2.30;99.90;;;;;;5098454;27;20047;-92
2024/01/20 06:04:42;;;;;;;2.10;2.00;;;2.30;99.90;;;;;;5094358;27;20047;-92
2024/01/20 06:07:07;;;;;;;2.30;2.20;;;2.10;99.90;;;;;;5094921;27;20047;-91
2024/01/20 06:09:33;;;;;;;2.35;2.25;;;2.30;99.90;;;;;;5093914;27;20039;-91
2024/01/20 06:11:59;;;;;;;2.40;2.30;;;2.10;99.90;;;;;;5111355;27;20127;-91
2024/01/20 06:14:25;;;;;;;2.50;2.40;;;2.10;99.90;;;;;;5097973;27;20069;-92
2024/01/20 06:16:50;;;;;;;2.40;2.30;;;2.40;99.90;;;;;;5096472;27;20051;-92
2024/01/20 06:19:16;;;;;;;2.10;2.00;;;2.10;99.90;;;;;;5100244;27;20051;-92
2024/01/20 06:21:42;;;;;;;2.10;2.00;;;2.10;99.90;;;;;;5098559;27;20039;-92
2024/01/20 06:24:08;;;;;;;2.30;2.20;;;2.30;99.90;;;;;;5097507;27;20043;-92
2024/01/20 06:26:33;;;;;;;2.30;2.20;;;2.10;99.90;;;;;;5096733;27;20039;-91
2024/01/20 06:28:59;;;;;;;2.20;2.10;;;2.10;99.90;;;;;;5096186;27;20071;-90
2024/01/20 06:31:26;;;;;;;2.40;2.30;;;2.40;99.90;;;;;;5100330;27;20039;-93
2024/01/20 06:33:53;;;;;;;2.10;2.00;;;2.10;99.90;;;;;;5098627;27;20085;-92
2024/01/20 06:36:25;;;;;;;2.30;2.20;;;2.00;99.90;;;;;;5096272;27;20150;-91
2024/01/20 06:38:51;;;;;;;2.30;2.20;;;2.10;99.90;;;;;;5114275;27;20049;-91
2024/01/20 06:41:17;;;;;;;2.13;2.03;;;2.30;99.90;;;;;;5097306;27;20046;-89
2024/01/20 06:43:43;;;;;;;2.10;2.00;;;2.10;99.90;;;;;;5096393;27;20039;-90
2024/01/20 06:46:08;;;;;;;2.10;2.00;;;2.20;99.90;;;;;;5099062;27;20129;-93
2024/01/20 06:48:35;;;;;;;2.13;2.03;;;2.00;99.90;;;;;;5095211;27;20050;-92
2024/01/20 06:51:02;;;;;;;2.13;2.03;;;2.20;99.90;;;;;;5094822;27;20043;-92
2024/01/20 06:53:28;;;;;;;2.10;2.00;;;2.20;99.90;;;;;;5094015;27;20103;-89
2024/01/20 06:55:54;;;;;;;2.00;1.90;;;2.10;99.90;;;;;;5094855;27;20058;-90
2024/01/20 06:58:20;;;;;;;2.00;1.90;;;1.90;99.90;;;;;;5092567;27;20043;-88
2024/01/20 07:00:45;;;;;;;2.10;2.00;;;2.20;99.90;;;;;;5087934;27;20047;-88
2024/01/20 07:03:11;;;;;;;2.10;2.00;;;2.30;99.90;;;;;;5095176;27;20388;-88
2024/01/20 07:05:37;;;;;;;2.00;1.90;;;2.10;99.90;;;;;;5099412;27;20039;-89
2024/01/20 07:08:04;;;;;;;2.17;2.08;;;2.00;99.90;;;;;;5094124;27;20038;-89
2024/01/20 07:10:30;;;;;;;2.13;2.03;;;2.00;99.90;;;;;;5095073;27;20047;-91
2024/01/20 07:12:56;;;;;;;2.00;1.90;;;2.30;99.90;;;;;;5091245;27;20534;-88
2024/01/20 07:15:22;;;;;;;2.13;2.03;;;2.20;99.90;;;;;;5095260;27;20055;-89
2024/01/20 07:17:48;;;;;;;2.08;1.98;;;2.20;99.90;;;;;;5112590;27;20067;-92
2024/01/20 07:20:14;;;;;;;2.08;1.98;;;2.10;99.90;;;;;;5095188;27;20094;-91
2024/01/20 07:22:41;;;;;;;2.13;2.03;;;2.20;99.90;;;;;;5095764;27;20046;-91
2024/01/20 07:25:10;;;;;;;2.10;2.00;;;2.00;99.90;;;;;;5096453;27;20118;-89
2024/01/20 07:27:39;;;;;;;2.08;1.98;;;2.00;99.90;;;;;;5111352;27;20047;-93
2024/01/20 07:30:05;;;;;;;2.10;2.00;;;2.20;99.90;;;;;;5092532;27;20496;-92
2024/01/20 07:32:31;;;;;;;2.10;2.00;;;2.20;99.90;;;;;;5096196;27;20130;-89
2024/01/20 07:34:56;;;;;;;2.10;2.00;;;2.10;99.90;;;;;;5095627;27;20142;-92
2024/01/20 07:37:23;;;;;;;2.20;2.10;;;2.00;99.90;;;;;;5095281;27;20459;-90
2024/01/20 07:39:49;;;;;;;2.20;2.10;;;2.10;99.90;;;;;;5097609;28;20316;-92
2024/01/20 07:42:15;;;;;;;2.22;2.13;;;2.20;99.90;;;;;;5093772;27;20078;-90
2024/01/20 07:44:40;;;;;;;2.22;2.13;;;2.00;99.90;;;;;;5093378;27;20050;-88
2024/01/20 07:47:06;;;;;;;2.20;2.10;;;2.10;99.90;;;;;;5113638;27;20047;-90
2024/01/20 07:49:32;;;;;;;2.67;2.53;;;2.20;99.90;;;;;;5095197;27;20039;-90
2024/01/20 07:51:57;;;;;;;2.10;2.00;;;2.00;99.90;;;;;;5095544;28;20103;-90
2024/01/20 07:54:23;;;;;;;2.20;2.10;;;1.90;99.90;;;;;;5110226;28;20043;-91
2024/01/20 07:56:49;;;;;;;2.17;2.08;;;2.30;99.90;;;;;;5094032;28;20043;-90
2024/01/20 07:59:16;;;;;;;2.17;2.08;;;2.00;99.90;;;;;;5093521;28;20039;-90
2024/01/20 08:01:42;;;;;;;2.20;2.10;;;2.00;99.90;;;;;;5110748;28;20047;-90
2024/01/20 08:04:08;;;;;;;2.03;1.92;;;2.20;99.90;;;;;;5093061;28;20134;-89
2024/01/20 08:06:37;;;;;;;2.10;2.00;;;2.20;99.90;;;;;;5110206;28;20408;-90
2024/01/20 08:09:02;;;;;;;2.20;2.10;;;2.20;99.90;;;;;;5109896;28;20574;-88
2024/01/20 08:11:29;;;;;;;2.10;2.00;;;2.50;99.90;;;;;;5091808;28;20055;-90
2024/01/20 08:13:54;;;;;;;1.95;1.85;;;2.60;99.90;;;;;;5094364;28;20054;-90
2024/01/20 08:16:20;;;;;;;2.10;2.00;;;2.40;99.90;;;;;;5095846;27;20047;-88
2024/01/20 08:18:46;;;;;;;2.20;2.10;;;2.60;99.90;;;;;;5092901;28;20472;-89
2024/01/20 08:21:12;;;;;;;1.90;1.80;;;2.60;99.90;;;;;;5093780;28;20039;-91
2024/01/20 08:23:37;;;;;;;2.10;2.00;;;2.80;99.90;;;;;;5092331;27;20047;-91
2024/01/20 08:26:03;;;;;;;2.00;1.90;;;2.90;99.90;;;;;;5109490;28;20498;-91
2024/01/20 08:28:29;;;;;;;2.00;1.90;;;2.80;99.90;;;;;;5093878;28;20035;-89
2024/01/20 08:30:55;;;;;;;2.00;1.90;;;3.00;99.90;;;;;;5095031;28;20381;-89
2024/01/20 08:33:20;;;;;;;1.98;1.88;;;3.10;99.90;;;;;;5092899;28;20122;-90
2024/01/20 08:35:46;;;;;;;1.98;1.88;;;3.20;99.90;;;;;;5094938;28;20134;-93
2024/01/20 08:38:12;;;;;;;1.83;1.73;;;3.20;99.90;;;;;;5095261;28;20035;-90
2024/01/20 08:40:38;;;;;;;1.80;1.70;;;3.30;99.90;;;;;;5095072;28;20043;-90
2024/01/20 08:43:04;;;;;;;1.90;1.80;;;3.30;99.90;;;;;;5110767;28;20039;-90
2024/01/20 08:45:32;;;;;;;1.75;1.65;;;3.30;99.90;;;;;;5093116;27;20047;-92
2024/01/20 08:47:58;;;;;;;1.88;1.77;;;3.40;99.90;;;;;;5093816;28;20035;-90
2024/01/20 08:50:24;;;;;;;1.80;1.70;;;3.60;99.90;;;;;;5108259;28;20039;-89
2024/01/20 08:52:49;;;;;;;1.80;1.70;;;3.50;99.90;;;;;;5090579;27;20076;-90
2024/01/20 08:55:15;;;;;;;1.80;1.70;;;3.60;99.90;;;;;;5092330;28;20096;-90
2024/01/20 08:57:41;;;;;;;1.75;1.65;;;3.80;99.90;;;;;;5092329;28;20100;-87
2024/01/20 09:00:09;;;;;;;1.80;1.70;;;3.80;99.90;;;;;;5091059;28;20032;-89
2024/01/20 09:02:35;;;;;;;1.60;1.50;;;4.00;99.90;;;;;;5089649;28;20039;-91
2024/01/20 09:05:01;;;;;;;1.65;1.55;;;4.20;99.90;;;;;;5107865;27;20783;-88
2024/01/20 09:07:27;;;;;;;1.55;1.45;;;4.10;99.90;;;;;;5096296;27;20119;-89
2024/01/20 09:09:52;;;;;;;1.50;1.40;;;4.20;99.90;;;;;;5096028;27;20123;-87
2024/01/20 09:12:18;;;;;;;1.30;1.30;;;4.10;99.90;;;;;;5094532;27;20059;-88
2024/01/20 09:14:44;;;;;;;1.33;1.33;;;4.10;99.90;;;;;;5107933;27;20051;-88
2024/01/20 09:17:10;;;;;;;1.30;1.30;;;4.00;99.90;;;;;;5094773;27;20047;-89
2024/01/20 09:19:36;;;;;;;1.30;1.30;;;4.00;99.90;;;;;;5109616;27;20051;-89
2024/01/20 09:22:01;;;;;;;1.30;1.30;;;4.00;99.90;;;;;;5094490;27;20054;-88
2024/01/20 09:24:27;;;;;;;1.30;1.30;;;4.10;99.90;;;;;;5093272;27;20070;-89
2024/01/20 09:26:53;;;;;;;1.30;1.30;;;4.10;99.90;;;;;;5095982;27;20054;-90
2024/01/20 09:29:19;;;;;;;1.50;1.40;;;4.20;99.90;;;;;;5111413;27;20039;-90
2024/01/20 09:31:45;;;;;;;1.50;1.40;;;4.40;99.90;;;;;;5095916;27;20384;-92
2024/01/20 09:34:13;;;;;;;1.40;1.40;;;4.50;99.90;;;;;;5113893;27;20035;-92
2024/01/20 09:36:39;;;;;;;1.30;1.30;;;4.40;99.80;;;;;;5112916;27;20047;-89
2024/01/20 09:39:05;;;;;;;1.30;1.30;;;4.40;68.70;;;;;;5112257;27;20103;-90
2024/01/20 09:41:31;;;;;;;1.30;1.30;;;4.30;19.10;;;;;;5097056;27;20970;-88
2024/01/20 09:43:58;;;;;;;1.30;1.30;;;4.30;25.30;;;;;;5095285;27;20050;-88
2024/01/20 09:46:25;;;;;;;1.33;1.30;;;4.40;79.00;;;;;;5096321;27;20492;-89
2024/01/20 09:48:55;;;;;;;1.30;1.30;;;4.40;57.60;;;;;;5113630;27;20740;-89
2024/01/20 09:51:28;;;;;;;1.30;1.30;;;4.40;52.90;;;;;;5111573;27;20144;-90
2024/01/20 09:53:59;;;;;;;1.30;1.30;;;4.50;54.50;;;;;;5108047;27;20058;-89
2024/01/20 09:56:28;;;;;;;1.30;1.30;;;4.40;33.80;;;;;;5097727;27;20035;-90
2024/01/20 09:58:59;;;;;;;1.30;1.30;;;4.50;41.20;;;;;;5109467;27;20126;-89
2024/01/20 10:01:26;;;;;;;1.35;1.33;;;4.50;24.60;;;;;;5093915;27;20054;-91
2024/01/20 10:03:58;;;;;;;1.30;1.30;;;4.50;1.00;;;;;;5092884;27;20047;-88
2024/01/20 10:06:24;;;;;;;1.30;1.30;;;4.60;1.00;;;;;;5088954;27;20436;-89
2024/01/20 10:08:50;;;;;;;1.38;1.35;;;4.60;1.00;;;;;;5092814;27;20138;-89
2024/01/20 10:11:16;;;;;;;1.40;1.40;;;4.60;1.00;;;;;;5093523;27;20196;-90
2024/01/20 10:13:42;;;;;;;1.50;1.40;;;4.70;1.00;;;;;;5092248;27;20047;-91
2024/01/20 10:16:07;;;;;;;1.50;1.40;;;4.60;1.00;;;;;;5093092;27;20039;-88
2024/01/20 10:18:34;;;;;;;1.40;1.40;;;4.60;1.00;;;;;;5090772;27;20035;-90
2024/01/20 10:21:06;;;;;;;1.50;1.40;;;4.50;1.00;;;;;;5094278;27;20122;-88
2024/01/20 10:23:37;;;;;;;1.50;1.40;;;4.60;1.00;;;;;;5091517;27;20050;-88
2024/01/20 10:26:04;;;;;;;1.60;1.50;;;4.60;1.00;;;;;;5110874;27;20054;-86
2024/01/20 10:28:30;;;;;;;1.50;1.40;;;4.60;1.00;;;;;;5088676;27;20045;-87
2024/01/20 10:30:56;;;;;;;1.60;1.50;;;4.60;1.00;;;;;;5091380;27;20669;-88
2024/01/20 10:33:22;;;;;;;1.60;1.50;;;4.70;1.00;;;;;;5091147;27;20083;-90
2024/01/20 10:35:52;;;;;;;1.50;1.40;;;4.70;1.00;;;;;;5089278;27;20043;-89
2024/01/20 10:38:21;;;;;;;1.60;1.50;;;4.70;1.00;;;;;;5105459;27;20503;-88
2024/01/20 10:40:53;;;;;;;1.50;1.40;;;4.70;1.00;;;;;;5090904;27;20411;-87
2024/01/20 10:43:19;;;;;;;1.63;1.52;;;4.70;1.00;;;;;;5109655;27;20054;-87
2024/01/20 10:46:17;;;;;;;1.60;1.50;;;4.80;1.00;;;;;;5108924;27;20047;-88
2024/01/20 10:48:50;;;;;;;1.60;1.50;;;4.80;1.00;;;;;;5092246;27;20446;-88
2024/01/20 10:51:21;;;;;;;1.70;1.60;;;4.80;1.00;;;;;;5107307;27;20114;-88
2024/01/20 10:53:49;;;;;;;1.50;1.40;;;4.90;1.00;;;;;;5105779;27;20051;-88
2024/01/20 10:56:16;;;;;;;1.60;1.50;;;4.90;1.00;;;;;;5092412;27;20039;-88
2024/01/20 10:58:48;;;;;;;1.65;1.55;;;4.90;1.00;;;;;;5110719;27;20039;-89
2024/01/20 11:01:14;;;;;;;1.55;1.45;;;4.90;1.00;;;;;;5108865;27;20386;-89
2024/01/20 11:03:41;;;;;;;1.58;1.48;;;4.90;1.00;;;;;;5092284;27;20036;-89
2024/01/20 11:06:20;;;;;;;1.60;1.50;;;4.90;1.00;;;;;;5092991;27;20050;-88
2024/01/20 11:08:51;;;;;;;1.60;1.50;;;4.90;1.00;;;;;;5102747;27;20042;-91
2024/01/20 11:11:19;;;;;;;1.50;1.40;;;4.90;1.00;;;;;;5110299;27;20090;-90
2024/01/20 11:13:48;;;;;;;1.60;1.50;;;5.00;1.00;;;;;;5093706;27;20051;-89
2024/01/20 11:16:21;;;;;;;1.50;1.40;;;4.90;1.00;;;;;;5093088;27;20111;-89
2024/01/20 11:18:47;;;;;;;1.95;1.85;;;5.00;1.00;;;;;;5110539;27;20035;-89
2024/01/20 11:21:18;;;;;;;1.55;1.45;;;5.10;1.00;;;;;;5110194;27;20043;-90
2024/01/20 11:24:01;;;;;;;1.50;1.40;;;5.10;1.00;;;;;;5091100;27;20039;-89
2024/01/20 11:26:37;;;;;;;1.48;1.40;;;5.10;1.00;;;;;;5087036;27;20408;-89
2024/01/20 11:29:08;;;;;;;1.50;1.40;;;5.10;99.90;;;;;;5093374;27;20052;-90
2024/01/20 11:31:34;;;;;;;1.48;1.38;;;5.10;99.90;;;;;;5108608;27;20621;-88
2024/01/20 11:34:02;;;;;;;1.48;1.38;;;5.10;99.90;;;;;;5110989;27;20039;-90
2024/01/20 11:36:29;;;;;;;1.35;1.33;;;5.10;99.90;;;;;;5112883;27;20057;-91
2024/01/20 11:39:00;;;;;;;1.50;1.40;;;5.10;99.90;;;;;;5111614;27;20054;-91
2024/01/20 11:41:26;;;;;;;1.52;1.42;;;5.20;99.90;;;;;;5110486;28;20063;-89
2024/01/20 11:43:52;;;;;;;1.38;1.38;;;5.20;99.90;;;;;;5112699;27;20111;-89
2024/01/20 11:46:19;;;;;;;1.38;1.35;;;5.20;99.90;;;;;;5107897;27;20086;-91
2024/01/20 11:48:48;;;;;;;1.50;1.40;;;5.30;99.90;;;;;;5094082;28;20035;-91
2024/01/20 11:51:15;;;;;;;1.30;1.30;;;5.30;99.90;;;;;;5111211;28;20514;-88
2024/01/20 11:53:41;;;;;;;1.30;1.30;;;5.40;99.90;;;;;;5110698;28;20054;-92
2024/01/20 11:56:07;;;;;;;1.48;1.40;;;5.30;99.90;;;;;;5093661;28;20422;-90
2024/01/20 11:58:33;;;;;;;1.25;1.25;;;5.40;99.90;;;;;;5094254;28;20043;-92
2024/01/20 12:00:59;;;;;;;1.58;1.48;;;5.40;99.90;;;;;;5095203;28;20046;-92
2024/01/20 12:03:26;;;;;;;1.30;1.30;;;5.50;99.90;;;;;;5095082;28;20136;-92
2024/01/20 12:05:52;;;;;;;1.20;1.20;;;5.50;99.90;;;;;;5114157;28;20047;-91
2024/01/20 12:08:19;;;;;;;1.30;1.30;;;5.50;99.90;;;;;;5112321;27;20048;-91
2024/01/20 12:10:45;;;;;;;1.30;1.30;;;5.50;99.90;;;;;;5095797;28;20046;-91
2024/01/20 12:13:14;;;;;;;1.30;1.30;;;5.50;99.90;;;;;;5092730;27;20043;-90
2024/01/20 12:15:40;;;;;;;1.30;1.30;;;5.40;99.90;;;;;;5095969;28;20039;-89
2024/01/20 12:18:07;;;;;;;1.27;1.27;;;5.50;99.90;;;;;;5094660;28;20054;-91
2024/01/20 12:20:41;;;;;;;1.25;1.25;;;5.40;99.90;;;;;;5096036;28;20039;-90
2024/01/20 12:23:06;;;;;;;1.20;1.20;;;5.50;99.90;;;;;;5095834;28;20043;-89
2024/01/20 12:25:32;;;;;;;1.25;1.25;;;5.50;99.90;;;;;;5092552;28;20777;-90
2024/01/20 12:27:59;;;;;;;1.20;1.20;;;5.50;99.90;;;;;;5096172;28;20051;-90
2024/01/20 12:30:26;;;;;;;1.20;1.20;;;5.50;99.90;;;;;;5094401;28;20050;-90
2024/01/20 12:32:52;;;;;;;1.20;1.20;;;5.60;99.90;;;;;;5092442;28;20047;-89
2024/01/20 12:35:18;;;;;;;1.20;1.20;;;5.50;99.90;;;;;;5095322;28;20080;-90
2024/01/20 12:37:44;;;;;;;1.27;1.27;;;5.60;99.90;;;;;;5108106;27;20050;-91
2024/01/20 12:40:11;;;;;;;1.20;1.20;;;5.60;99.90;;;;;;5098045;27;20751;-91
2024/01/20 12:42:37;;;;;;;1.20;1.20;;;5.60;99.90;;;;;;5097560;27;20096;-91
2024/01/20 12:45:05;;;;;;;1.15;1.15;;;5.60;99.90;;;;;;5101252;27;20039;-91
2024/01/20 12:47:38;;;;;;;1.20;1.20;;;5.60;99.90;;;;;;5115900;27;20488;-89
2024/01/20 12:50:05;;;;;;;1.20;1.20;;;5.60;99.90;;;;;;5094381;27;20103;-91
2024/01/20 12:52:30;;;;;;;1.20;1.20;;;5.50;99.90;;;;;;5094689;27;20126;-90
2024/01/20 12:54:57;;;;;;;1.15;1.15;;;5.60;99.90;;;;;;5094175;27;20127;-91
2024/01/20 12:57:24;;;;;;;1.25;1.25;;;5.50;99.90;;;;;;5114963;27;20046;-90
2024/01/20 12:59:50;;;;;;;1.20;1.20;;;5.50;99.90;;;;;;5095091;27;20129;-90
2024/01/20 13:02:15;;;;;;;1.23;1.23;;;5.60;99.90;;;;;;5111574;27;20139;-90
2024/01/20 13:04:42;;;;;;;1.20;1.20;;;5.60;99.90;;;;;;5111599;27;20078;-90
2024/01/20 13:07:08;;;;;;;1.20;1.20;;;5.60;99.90;;;;;;5097561;27;20062;-90
2024/01/20 13:09:35;;;;;;;1.20;1.20;;;5.60;99.90;;;;;;5114093;27;20050;-89
2024/01/20 13:12:01;;;;;;;1.15;1.15;;;5.80;99.90;;;;;;5094705;27;20066;-91
2024/01/20 13:14:27;;;;;;;1.30;1.30;;;5.80;99.90;;;;;;5112547;27;20050;-90
2024/01/20 13:16:53;;;;;;;1.20;1.20;;;6.00;99.90;;;;;;5110976;27;20035;-89
2024/01/20 13:19:18;;;;;;;1.30;1.30;;;6.20;85.80;;;;;;5117720;27;20051;-88
2024/01/20 13:21:44;;;;;;;1.30;1.30;;;6.30;1.00;;;;;;5111399;27;20043;-87
2024/01/20 13:24:12;;;;;;;1.55;1.45;;;6.30;1.00;;;;;;5111771;27;20069;-92
2024/01/20 13:26:38;;;;;;;1.50;1.40;;;6.30;1.00;;;;;;5097399;27;20043;-90
2024/01/20 13:29:04;;;;;;;1.52;1.42;;;6.40;1.00;;;;;;5095464;27;20041;-89
2024/01/20 13:31:31;;;;;;;1.55;1.45;;;6.40;1.00;;;;;;5112102;27;20076;-90